Airfield :
LOGIN :

Register | Disclaimer

   EN    FR    IT 

 










Legend :    VFR   Marginal VFR   IFR   Intensive IFR   Very Intensive IFR
Visi :
Ceiling :
>= 8 km
>= 3000ft
5 to 8 km
1000 to 3000 ft
1500m to 5 km
500 to 1000 ft
800 to 1500m
200 to 500 ft
< 800m
< 200 ft
Symbols :   Thunderstorms  Fog  Heavy snow  Heavy precipitations  Wind > 20 kt
SIGMETs :     Misc.  Thunderstorms  Icing  Turbulence  Mountain Waves  Volcanic Ashes






- Airport Elevation : 120 ft
- IATA code : MME


EGNV - Durham Tees valley

CURRENT METAR :
  • 271720Z 27010KT 9999 FEW025 04/M01 Q1004

EXPIRED METARs :
  • 271650Z 28017G27KT 9999 FEW028 05/M01 Q1003
  • 271620Z 28015KT 9999 FEW022 SCT041 06/M02 Q1003
  • 271550Z 29017KT 9999 FEW025 SCT044 06/M02 Q1002
  • 271520Z 29017G30KT 9999 FEW025 SCT042 06/M02 Q1002
  • 271450Z 29018KT 9999 FEW030 SCT040 06/M02 Q1001

TAF TAF EGNV
Valid from the 27 at 18:00 until the 27 at 22:00 UTC


271701Z 2718/2722 28015KT 9999 FEW025
PROB40
TEMPO 2718/2722 27017G27KT
ATIS : +44 9012 018 111



MET'MAP, your aeronautical weather chart ! - Copyright ORBIFLY December 2007 - Disclaimer

ORBIFLY MET'MAP TEAM :

Programming & Development : Alexandra Zaïnal
Concept & original design : Baudouin d'Aumeries
Assistance for programming : Marc-Olivier Méhu
Technical & hardware support : Manuel Goepfert

Contact : metmap@orbifly.com




SOURCES & CREDITS :

   NOAA